Guo Mao 1 — 5VBT9 — position and weather

sailwx.info

Track history (hours):
 
Tides and Currents Weather Stations Pressure Air Temp Water Temp Dewpoint Dewpoint Depression Visibility Wind Speed Wind Dir Waves Ship Positions

Guo Mao 1

Last reported at 2017-Sep-21 09:19 UTC. Time now 2017-Sep-22 00:41 UTC.
Position N 37°42' E 121°58'.

Length 99 m; draft 5.8 m.

Type: Cargo ship. MMSI: 671307000.

Date/timePositionNaut miles runAvg speedWind from/ knotsBaromVisibWave heightAir tempDewpointWater temp
2017-Sep-21 09:19N 37°42' E 121°58'3 8.9
2017-Sep-21 09:00N 37°42' E 121°55'10 9.1
2017-Sep-21 07:54N 37°43' E 121°42'4 9.3
2017-Sep-21 07:30N 37°43' E 121°37'5 9.4
2017-Sep-21 07:00N 37°43' E 121°31'5 9.0
2017-Sep-21 06:30N 37°44' E 121°26'5 9.0
2017-Sep-21 05:59N 37°44' E 121°20'5 8.9
2017-Sep-21 05:28N 37°45' E 121°14'4 8.4
2017-Sep-21 05:00N 37°44' E 121°09'4 0.2
2017-Sep-20 05:32N 37°43' E 121°05'1 5.4
2017-Sep-20 05:24N 37°43' E 121°06'  
Track history (hours):
 
Tides and Currents Weather Stations Pressure Air Temp Water Temp Dewpoint Dewpoint Depression Visibility Wind Speed Wind Dir Waves Ship Positions

Guo Mao 1

Last reported at 2017-Sep-21 09:19 UTC. Time now 2017-Sep-22 00:41 UTC.
Position N 37°42' E 121°58'.

Length 99 m; draft 5.8 m.

Type: Cargo ship. MMSI: 671307000.

Date/timePositionNaut miles runAvg speedWind from/ knotsBaromVisibWave heightAir tempDewpointWater temp
2017-Sep-21 09:19N 37°42' E 121°58'3 8.9
2017-Sep-21 09:00N 37°42' E 121°55'10 9.1
2017-Sep-21 07:54N 37°43' E 121°42'4 9.3
2017-Sep-21 07:30N 37°43' E 121°37'5 9.4
2017-Sep-21 07:00N 37°43' E 121°31'5 9.0
2017-Sep-21 06:30N 37°44' E 121°26'5 9.0
2017-Sep-21 05:59N 37°44' E 121°20'5 8.9
2017-Sep-21 05:28N 37°45' E 121°14'4 8.4
2017-Sep-21 05:00N 37°44' E 121°09'4 0.2
2017-Sep-20 05:32N 37°43' E 121°05'1 5.4
2017-Sep-20 05:24N 37°43' E 121°06'  

Dump ship's entire track history